createdAt,value
2023-11-14T00:05:57.564Z,14.60
2023-11-14T00:08:59.221Z,14.90
2023-11-14T00:15:02.639Z,13.40
2023-11-14T00:18:04.441Z,16.30
2023-11-14T00:21:06.296Z,13.50
2023-11-14T00:24:08.867Z,14.60
2023-11-14T00:27:10.596Z,16.10
2023-11-14T00:30:12.592Z,15.30
2023-11-14T00:33:14.332Z,13.80
2023-11-14T00:36:15.986Z,13.90
2023-11-14T00:42:19.152Z,12.10
2023-11-14T00:48:22.551Z,10.60
2023-11-14T00:54:26.063Z,11.00
2023-11-14T00:57:27.787Z,10.40
2023-11-14T01:00:29.578Z,9.20
2023-11-14T01:03:31.693Z,9.20
2023-11-14T01:06:33.936Z,7.90
2023-11-14T01:09:35.757Z,7.50
2023-11-14T01:12:37.705Z,5.30
2023-11-14T01:15:39.407Z,5.70
2023-11-14T01:18:41.243Z,5.40
2023-11-14T01:21:42.909Z,5.10
2023-11-14T01:24:44.717Z,4.40
2023-11-14T01:27:46.462Z,3.90
2023-11-14T01:30:48.080Z,3.80
2023-11-14T01:39:53.266Z,15.20
2023-11-14T01:43:01.569Z,12.50
2023-11-14T01:46:03.597Z,7.10
2023-11-14T01:49:05.336Z,5.90
2023-11-14T01:52:07.128Z,5.60
2023-11-14T01:55:09.261Z,7.70
2023-11-14T01:58:11.220Z,29.90
2023-11-14T02:01:13.052Z,23.90
2023-11-14T02:04:17.682Z,21.90
2023-11-14T02:07:20.515Z,25.50
2023-11-14T02:10:22.298Z,25.80
2023-11-14T02:13:24.250Z,21.50
2023-11-14T02:16:26.008Z,19.40
2023-11-14T02:19:27.941Z,18.80
2023-11-14T02:22:29.707Z,16.40
2023-11-14T02:25:31.686Z,15.10
2023-11-14T02:28:33.510Z,15.50
2023-11-14T02:31:36.138Z,15.60
2023-11-14T02:34:37.997Z,15.10
2023-11-14T02:37:40.161Z,13.90
2023-11-14T02:40:41.990Z,13.60
2023-11-14T02:43:43.757Z,14.80
2023-11-14T02:46:45.415Z,15.70
2023-11-14T02:52:53.314Z,14.30
2023-11-14T02:55:55.186Z,12.30
2023-11-14T02:58:56.911Z,10.30
2023-11-14T03:01:58.643Z,9.60
2023-11-14T03:05:00.495Z,9.10
2023-11-14T03:08:02.545Z,8.50
2023-11-14T03:11:04.385Z,8.10
2023-11-14T03:14:06.262Z,7.00
2023-11-14T03:17:08.104Z,7.20
2023-11-14T03:20:20.818Z,6.70
2023-11-14T03:23:30.214Z,6.30
2023-11-14T03:26:32.687Z,5.90
2023-11-14T03:29:35.321Z,5.80
2023-11-14T03:32:37.306Z,5.60
2023-11-14T03:35:39.246Z,5.20
2023-11-14T03:38:40.992Z,5.30
2023-11-14T03:41:42.755Z,5.10
2023-11-14T03:44:44.452Z,4.90
2023-11-14T03:47:46.328Z,4.60
2023-11-14T03:50:48.069Z,4.60
2023-11-14T03:53:49.712Z,4.30
2023-11-14T03:56:51.554Z,4.60
2023-11-14T03:59:53.236Z,5.40
2023-11-14T04:02:55.055Z,5.00
2023-11-14T04:05:56.800Z,4.30
2023-11-14T04:08:58.515Z,4.50
2023-11-14T04:12:00.511Z,4.60
2023-11-14T04:15:02.447Z,4.80
2023-11-14T04:18:04.529Z,4.00
2023-11-14T04:21:06.396Z,4.10
2023-11-14T04:24:08.790Z,3.80
2023-11-14T04:27:10.518Z,4.10
2023-11-14T04:30:12.746Z,3.80
2023-11-14T04:33:14.717Z,3.90
2023-11-14T04:36:16.600Z,3.80
2023-11-14T04:39:18.251Z,3.70
2023-11-14T04:42:20.030Z,4.00
2023-11-14T04:45:21.943Z,3.80
2023-11-14T04:48:23.750Z,4.00
2023-11-14T04:51:25.566Z,3.60
2023-11-14T04:54:27.209Z,3.40
2023-11-14T05:00:34.150Z,3.20
2023-11-14T05:03:38.069Z,3.60
2023-11-14T05:06:40.055Z,3.50
2023-11-14T05:09:42.468Z,3.20
2023-11-14T05:12:44.265Z,3.00
2023-11-14T05:15:46.838Z,3.00
2023-11-14T05:18:48.453Z,3.20
2023-11-14T05:21:50.916Z,3.30
2023-11-14T05:24:52.606Z,3.20
2023-11-14T05:27:54.571Z,3.50
2023-11-14T05:30:56.250Z,4.00
2023-11-14T05:33:57.951Z,4.80
2023-11-14T05:36:59.619Z,8.60
2023-11-14T05:49:06.109Z,4.00
2023-11-14T05:52:08.139Z,5.50
2023-11-14T05:55:09.865Z,5.00
2023-11-14T05:58:12.145Z,4.40
2023-11-14T06:01:13.875Z,4.20
2023-11-14T06:04:15.638Z,4.20
2023-11-14T06:07:17.463Z,4.10
2023-11-14T06:10:19.152Z,5.10
2023-11-14T06:13:21.457Z,5.00
2023-11-14T06:16:26.463Z,5.20
2023-11-14T06:19:29.191Z,5.70
2023-11-14T06:22:30.954Z,6.00
2023-11-14T06:25:32.810Z,5.90
2023-11-14T06:28:34.525Z,5.80
2023-11-14T06:31:36.116Z,5.40
2023-11-14T06:34:37.892Z,5.70
2023-11-14T06:37:39.604Z,5.40
2023-11-14T06:40:41.274Z,5.50
2023-11-14T06:43:43.151Z,4.80
2023-11-14T06:46:44.904Z,4.90
2023-11-14T06:49:46.740Z,5.40
2023-11-14T06:52:48.785Z,5.30
2023-11-14T06:55:50.759Z,5.30
2023-11-14T06:58:52.566Z,6.20
2023-11-14T07:01:54.333Z,6.40
2023-11-14T07:04:56.063Z,5.90
2023-11-14T07:07:59.040Z,6.60
2023-11-14T07:11:01.116Z,6.00
2023-11-14T07:14:02.863Z,5.90
2023-11-14T07:17:05.168Z,6.10
2023-11-14T07:20:07.616Z,5.40
2023-11-14T07:23:09.875Z,6.10
2023-11-14T07:26:11.700Z,5.40
2023-11-14T07:29:14.541Z,4.70
2023-11-14T07:32:16.614Z,5.50
2023-11-14T07:35:18.457Z,5.50
2023-11-14T07:38:20.216Z,5.40
2023-11-14T07:41:22.097Z,5.60
2023-11-14T07:44:23.788Z,5.10
2023-11-14T07:47:25.565Z,5.60
2023-11-14T07:50:27.740Z,5.20
2023-11-14T07:53:30.443Z,6.10
2023-11-14T07:56:32.178Z,5.60
2023-11-14T07:59:33.954Z,5.60
2023-11-14T08:02:35.828Z,5.60
2023-11-14T08:05:38.688Z,5.60
2023-11-14T08:08:40.426Z,5.50
2023-11-14T08:11:42.111Z,6.00
2023-11-14T08:14:43.837Z,6.50
2023-11-14T08:17:45.821Z,5.70
2023-11-14T08:20:47.637Z,5.30
2023-11-14T08:23:49.502Z,5.10
2023-11-14T08:26:51.313Z,4.40
2023-11-14T08:29:53.124Z,4.20
2023-11-14T08:32:55.706Z,4.20
2023-11-14T08:35:57.547Z,4.10
2023-11-14T08:38:59.496Z,3.80
2023-11-14T08:42:02.376Z,4.00
2023-11-14T08:45:05.658Z,3.70
2023-11-14T08:48:08.847Z,4.20
2023-11-14T08:51:10.653Z,3.60
2023-11-14T08:54:12.299Z,3.80
2023-11-14T08:57:13.939Z,4.00
2023-11-14T09:00:16.190Z,4.20
2023-11-14T09:03:18.044Z,3.80
2023-11-14T09:06:19.907Z,3.80
2023-11-14T09:09:22.266Z,3.90
2023-11-14T09:12:23.901Z,3.30
2023-11-14T09:15:25.540Z,3.70
2023-11-14T09:18:27.485Z,3.40
2023-11-14T09:21:29.285Z,3.50
2023-11-14T09:24:31.112Z,3.70
2023-11-14T09:27:32.764Z,4.10
2023-11-14T09:30:34.917Z,3.50
2023-11-14T09:33:37.172Z,4.00
2023-11-14T09:36:40.271Z,4.20
2023-11-14T09:39:42.194Z,3.50
2023-11-14T09:42:44.069Z,3.60
2023-11-14T09:45:46.613Z,3.30
2023-11-14T09:48:48.689Z,3.60
2023-11-14T09:51:51.125Z,4.00
2023-11-14T09:54:53.134Z,3.80
2023-11-14T09:57:54.820Z,4.10
2023-11-14T10:00:56.635Z,3.80
2023-11-14T10:03:58.435Z,3.70
2023-11-14T10:07:00.640Z,4.00
2023-11-14T10:10:03.085Z,4.00
2023-11-14T10:13:04.763Z,4.00
2023-11-14T10:16:22.789Z,3.70
2023-11-14T10:19:24.623Z,3.90
2023-11-14T10:22:26.595Z,4.00
2023-11-14T10:25:30.441Z,3.70
2023-11-14T10:28:32.215Z,3.90
2023-11-14T10:31:38.620Z,3.50
2023-11-14T10:34:40.586Z,4.30
2023-11-14T10:37:42.241Z,4.00
2023-11-14T10:40:48.826Z,3.80
2023-11-14T10:43:50.795Z,3.80
2023-11-14T10:46:57.339Z,4.00
2023-11-14T10:49:59.127Z,3.80
2023-11-14T10:53:01.709Z,3.80
2023-11-14T10:56:03.862Z,3.70
2023-11-14T10:59:07.352Z,4.10
2023-11-14T11:02:09.599Z,3.90
2023-11-14T11:05:24.493Z,3.50
2023-11-14T11:08:30.413Z,4.00
2023-11-14T11:11:43.244Z,3.90
2023-11-14T11:14:45.840Z,4.00
2023-11-14T11:17:47.726Z,4.00
2023-11-14T11:20:49.578Z,4.40
2023-11-14T11:24:05.675Z,4.10
2023-11-14T11:27:14.009Z,3.50
2023-11-14T11:30:15.657Z,3.80
2023-11-14T11:33:33.606Z,4.40
2023-11-14T11:36:35.440Z,3.40
2023-11-14T11:40:06.729Z,3.60
2023-11-14T11:43:11.576Z,4.30
2023-11-14T11:46:33.910Z,4.00
2023-11-14T11:49:35.694Z,4.10
2023-11-14T11:52:37.342Z,3.90
2023-11-14T11:55:39.130Z,3.60
2023-11-14T11:58:47.424Z,4.10
2023-11-14T12:01:49.083Z,3.70
2023-11-14T12:04:51.668Z,3.80
2023-11-14T12:07:53.847Z,4.10
2023-11-14T12:10:56.030Z,4.20
2023-11-14T12:13:58.006Z,3.80
2023-11-14T12:16:59.895Z,3.70
2023-11-14T12:20:02.785Z,3.90
2023-11-14T12:23:06.288Z,4.20
2023-11-14T12:26:08.602Z,3.80
2023-11-14T12:29:11.283Z,3.50
2023-11-14T12:32:13.434Z,4.40
2023-11-14T12:35:15.685Z,3.90
2023-11-14T12:38:29.470Z,4.10
2023-11-14T12:41:31.644Z,3.80
2023-11-14T12:44:34.157Z,3.70
2023-11-14T12:47:39.165Z,4.10
2023-11-14T12:50:42.146Z,3.60
2023-11-14T12:53:44.091Z,3.80
2023-11-14T12:56:46.244Z,4.10
2023-11-14T12:59:47.908Z,3.90
2023-11-14T13:02:50.111Z,3.80
2023-11-14T13:05:51.828Z,3.90
2023-11-14T13:08:53.540Z,4.50
2023-11-14T13:11:55.422Z,4.70
2023-11-14T13:14:57.116Z,4.00
2023-11-14T13:17:58.811Z,4.50
2023-11-14T13:21:00.743Z,3.70
2023-11-14T13:24:03.362Z,4.10
2023-11-14T13:27:05.767Z,4.70
2023-11-14T13:30:08.579Z,4.30
2023-11-14T13:33:10.362Z,4.00
2023-11-14T13:36:12.205Z,4.50
2023-11-14T13:39:14.140Z,4.90
2023-11-14T13:42:16.128Z,4.50
2023-11-14T13:45:17.824Z,4.50
2023-11-14T13:48:19.969Z,4.40
2023-11-14T13:51:21.943Z,4.70
2023-11-14T13:54:23.919Z,4.60
2023-11-14T13:57:25.682Z,4.50
2023-11-14T14:00:27.542Z,4.60
2023-11-14T14:03:29.279Z,4.20
2023-11-14T14:06:31.325Z,4.30
2023-11-14T14:09:32.944Z,4.50
2023-11-14T14:12:34.653Z,4.40
2023-11-14T14:15:36.393Z,4.10
2023-11-14T14:18:38.272Z,4.70
2023-11-14T14:21:39.942Z,4.60
2023-11-14T14:24:41.632Z,4.40
2023-11-14T14:27:43.500Z,4.70
2023-11-14T14:30:45.198Z,4.20
2023-11-14T14:33:47.096Z,4.20
2023-11-14T14:36:48.756Z,4.50
2023-11-14T14:39:52.768Z,4.20
2023-11-14T14:42:55.173Z,4.20
2023-11-14T14:45:56.898Z,4.20
2023-11-14T14:48:58.813Z,4.60
2023-11-14T14:52:01.838Z,4.40
2023-11-14T14:55:04.964Z,4.40
2023-11-14T14:58:06.619Z,4.10
2023-11-14T15:01:08.280Z,5.00
2023-11-14T15:04:10.249Z,4.20
2023-11-14T15:07:12.198Z,4.20
2023-11-14T15:10:14.071Z,4.90
2023-11-14T15:13:15.868Z,5.30
2023-11-14T15:16:17.789Z,5.30
2023-11-14T15:19:19.903Z,7.90
2023-11-14T15:22:21.579Z,5.80
2023-11-14T15:25:23.437Z,5.00
2023-11-14T15:28:25.228Z,5.20
2023-11-14T15:31:26.904Z,4.30
2023-11-14T15:34:28.848Z,5.00
2023-11-14T15:37:30.532Z,5.20
2023-11-14T15:40:32.770Z,5.60
2023-11-14T15:43:34.450Z,6.10
2023-11-14T15:46:36.131Z,5.40
2023-11-14T15:49:37.801Z,5.70
2023-11-14T15:52:39.676Z,6.50
2023-11-14T15:55:41.349Z,6.90
2023-11-14T15:58:43.041Z,8.00
2023-11-14T16:01:47.453Z,8.30
2023-11-14T16:04:50.421Z,8.40
2023-11-14T16:07:52.280Z,7.80
2023-11-14T16:10:53.947Z,7.30
2023-11-14T16:13:56.118Z,7.60
2023-11-14T16:16:57.905Z,7.80
2023-11-14T16:19:59.702Z,8.10
2023-11-14T16:23:01.592Z,7.60
2023-11-14T16:26:03.368Z,8.20
2023-11-14T16:29:05.152Z,7.30
2023-11-14T16:32:07.544Z,7.60
2023-11-14T16:35:09.430Z,7.90
2023-11-14T16:38:11.219Z,8.60
2023-11-14T16:41:13.415Z,7.60
2023-11-14T16:44:15.099Z,7.30
2023-11-14T16:47:16.935Z,8.20
2023-11-14T16:50:19.099Z,8.80
2023-11-14T16:53:20.981Z,11.20
2023-11-14T16:56:22.717Z,14.40
2023-11-14T16:59:27.165Z,16.00
2023-11-14T17:02:29.172Z,15.90
2023-11-14T17:05:31.416Z,9.90
2023-11-14T17:08:33.746Z,7.90
2023-11-14T17:11:35.521Z,11.20
2023-11-14T17:14:37.178Z,9.60
2023-11-14T17:17:40.064Z,12.10
2023-11-14T17:20:42.006Z,12.30
2023-11-14T17:23:43.766Z,10.80
2023-11-14T17:26:45.509Z,11.00
2023-11-14T17:29:49.948Z,9.20
2023-11-14T17:32:52.177Z,10.10
2023-11-14T17:35:54.000Z,9.50
2023-11-14T17:38:55.801Z,9.10
2023-11-14T17:41:58.622Z,9.40
2023-11-14T17:45:00.438Z,8.40
2023-11-14T17:48:02.459Z,8.00
2023-11-14T17:51:04.667Z,8.60
2023-11-14T17:54:07.032Z,8.20
2023-11-14T17:57:10.925Z,8.50
2023-11-14T18:00:16.236Z,8.30
2023-11-14T18:03:18.091Z,8.10
2023-11-14T18:06:20.159Z,8.10
2023-11-14T18:09:22.219Z,7.60
2023-11-14T18:12:23.931Z,7.90
2023-11-14T18:15:25.685Z,8.20
2023-11-14T18:18:27.477Z,8.60
2023-11-14T18:21:29.277Z,7.90
2023-11-14T18:24:30.952Z,8.30
2023-11-14T18:27:32.939Z,7.60
2023-11-14T18:30:34.837Z,7.70
2023-11-14T18:33:36.649Z,7.50
2023-11-14T18:36:38.462Z,7.90
2023-11-14T18:39:41.052Z,7.30
2023-11-14T18:42:43.031Z,6.70
2023-11-14T18:45:45.269Z,7.30
2023-11-14T18:48:47.350Z,7.70
2023-11-14T18:51:49.142Z,7.30
2023-11-14T18:54:50.947Z,7.50
2023-11-14T18:57:52.611Z,6.70
2023-11-14T19:00:57.292Z,6.40
2023-11-14T19:03:59.279Z,6.90
2023-11-14T19:07:01.175Z,7.00
2023-11-14T19:10:03.274Z,6.70
2023-11-14T19:13:05.407Z,6.90
2023-11-14T19:16:07.647Z,7.20
2023-11-14T19:19:09.427Z,7.00
2023-11-14T19:22:39.078Z,7.20
2023-11-14T19:25:33.015Z,7.10
2023-11-14T19:28:37.149Z,7.10
2023-11-14T19:31:39.327Z,6.80
2023-11-14T19:34:41.051Z,8.20
2023-11-14T19:37:42.804Z,8.00
2023-11-14T19:40:44.466Z,7.00
2023-11-14T19:43:46.893Z,6.60
2023-11-14T19:46:48.888Z,6.90
2023-11-14T19:49:50.643Z,6.70
2023-11-14T19:52:52.345Z,6.90
2023-11-14T19:55:54.221Z,6.80
2023-11-14T19:58:55.924Z,7.20
2023-11-14T20:01:57.572Z,6.90
2023-11-14T20:04:59.303Z,7.10
2023-11-14T20:08:00.968Z,6.60
2023-11-14T20:11:02.836Z,7.30
2023-11-14T20:14:04.464Z,6.50
2023-11-14T20:17:06.173Z,6.90
2023-11-14T20:20:08.940Z,6.80
2023-11-14T20:23:10.565Z,7.80
2023-11-14T20:26:12.434Z,7.80
2023-11-14T20:29:14.065Z,7.60
2023-11-14T20:32:15.949Z,7.30
2023-11-14T20:35:17.695Z,6.70
2023-11-14T20:38:19.424Z,6.70
2023-11-14T20:41:21.177Z,7.00
2023-11-14T20:44:22.891Z,6.10
2023-11-14T20:47:24.869Z,6.30
2023-11-14T20:50:26.604Z,6.80
2023-11-14T20:53:28.373Z,6.20
2023-11-14T20:56:30.136Z,7.10
2023-11-14T20:59:31.942Z,6.80
2023-11-14T21:02:33.824Z,6.40
2023-11-14T21:05:35.559Z,7.50
2023-11-14T21:08:37.467Z,7.50
2023-11-14T21:11:43.273Z,7.20
2023-11-14T21:14:45.025Z,7.40
2023-11-14T21:17:52.644Z,6.60
2023-11-14T21:20:55.004Z,7.40
2023-11-14T21:23:56.843Z,6.50
2023-11-14T21:26:58.919Z,6.70
2023-11-14T21:30:00.646Z,6.20
2023-11-14T21:33:02.502Z,6.00
2023-11-14T21:36:05.180Z,6.40
2023-11-14T21:39:07.080Z,6.40
2023-11-14T21:42:08.973Z,6.60
2023-11-14T21:45:11.455Z,7.30
2023-11-14T21:48:13.216Z,7.60
2023-11-14T21:51:17.562Z,6.70
2023-11-14T21:54:19.410Z,6.30
2023-11-14T21:57:20.994Z,7.10
2023-11-14T22:00:22.697Z,7.60
2023-11-14T22:03:24.469Z,7.10
2023-11-14T22:06:26.319Z,6.30
2023-11-14T22:09:28.286Z,6.90
2023-11-14T22:12:30.371Z,6.80
2023-11-14T22:15:32.046Z,6.70
2023-11-14T22:18:33.680Z,6.50
2023-11-14T22:21:39.834Z,6.10
2023-11-14T22:24:41.488Z,6.50
2023-11-14T22:27:43.189Z,5.80
2023-11-14T22:30:44.877Z,6.40
2023-11-14T22:33:49.366Z,6.40
2023-11-14T22:36:51.192Z,6.50
2023-11-14T22:39:52.868Z,6.80
2023-11-14T22:42:54.767Z,7.70
2023-11-14T22:45:56.473Z,7.20
2023-11-14T22:48:58.219Z,7.00
2023-11-14T22:51:59.881Z,7.90
2023-11-14T22:55:04.246Z,7.40
2023-11-14T22:58:06.642Z,6.90
2023-11-14T23:01:08.528Z,8.10
2023-11-14T23:04:13.603Z,6.90
2023-11-14T23:07:17.817Z,6.70
2023-11-14T23:10:19.518Z,6.80
2023-11-14T23:13:21.483Z,7.50
2023-11-14T23:16:23.261Z,7.30
2023-11-14T23:19:25.305Z,7.20
2023-11-14T23:22:27.137Z,7.00
2023-11-14T23:25:28.914Z,7.00
2023-11-14T23:28:30.973Z,8.70
2023-11-14T23:31:33.051Z,9.00
2023-11-14T23:34:34.771Z,7.70
2023-11-14T23:37:36.771Z,7.40
2023-11-14T23:40:38.547Z,7.20
2023-11-14T23:43:40.606Z,6.60
2023-11-14T23:46:42.542Z,6.60
2023-11-14T23:49:44.284Z,6.00
2023-11-14T23:52:49.377Z,6.80
2023-11-14T23:55:53.258Z,7.30
2023-11-14T23:58:55.056Z,6.70
